createdAt,value
2022-12-15T00:01:28.830Z,41.08
2022-12-15T00:04:21.478Z,35.90
2022-12-15T00:07:15.172Z,35.95
2022-12-15T00:10:03.986Z,34.90
2022-12-15T00:12:52.375Z,35.40
2022-12-15T00:15:43.690Z,34.97
2022-12-15T00:18:33.142Z,35.00
2022-12-15T00:21:20.723Z,35.13
2022-12-15T00:24:06.886Z,39.53
2022-12-15T00:26:57.238Z,37.58
2022-12-15T00:29:51.742Z,44.38
2022-12-15T00:32:44.320Z,41.60
2022-12-15T00:35:33.385Z,43.80
2022-12-15T00:38:26.156Z,42.53
2022-12-15T00:41:02.335Z,44.22
2022-12-15T00:43:42.765Z,37.50
2022-12-15T00:46:29.544Z,36.85
2022-12-15T00:49:09.796Z,42.60
2022-12-15T00:51:55.892Z,37.97
2022-12-15T00:54:44.817Z,40.47
2022-12-15T00:57:32.200Z,41.28
2022-12-15T01:00:22.073Z,36.67
2022-12-15T01:03:08.488Z,39.05
2022-12-15T01:05:56.306Z,36.67
2022-12-15T01:08:43.419Z,36.88
2022-12-15T01:11:31.111Z,34.40
2022-12-15T01:14:17.378Z,37.33
2022-12-15T01:17:05.969Z,42.42
2022-12-15T01:22:50.332Z,44.67
2022-12-15T01:25:28.022Z,48.22
2022-12-15T01:28:02.243Z,41.38
2022-12-15T01:30:33.058Z,50.72
2022-12-15T01:33:10.804Z,48.90
2022-12-15T01:35:41.932Z,52.05
2022-12-15T01:38:18.182Z,51.13
2022-12-15T01:41:04.663Z,43.80
2022-12-15T01:44:00.919Z,46.90
2022-12-15T01:46:39.888Z,40.47
2022-12-15T01:49:20.537Z,37.38
2022-12-15T01:51:59.028Z,40.22
2022-12-15T01:54:51.733Z,50.33
2022-12-15T01:57:26.529Z,60.13
2022-12-15T02:00:04.453Z,48.35
2022-12-15T02:02:59.780Z,44.25
2022-12-15T02:05:36.974Z,40.88
2022-12-15T02:08:16.122Z,44.15
2022-12-15T02:11:01.143Z,41.53
2022-12-15T02:13:50.992Z,60.80
2022-12-15T02:16:26.619Z,60.03
2022-12-15T02:19:13.166Z,56.38
2022-12-15T02:22:02.584Z,43.78
2022-12-15T02:24:49.651Z,44.53
2022-12-15T02:27:26.950Z,42.67
2022-12-15T02:30:27.321Z,41.25
2022-12-15T02:33:17.079Z,39.28
2022-12-15T02:36:06.249Z,36.42
2022-12-15T02:38:42.201Z,32.58
2022-12-15T02:41:46.316Z,35.17
2022-12-15T02:44:19.441Z,37.35
2022-12-15T02:47:00.484Z,33.30
2022-12-15T02:49:35.590Z,36.67
2022-12-15T02:52:11.322Z,36.35
2022-12-15T02:55:11.699Z,34.05
2022-12-15T02:57:46.298Z,31.42
2022-12-15T03:00:17.821Z,34.80
2022-12-15T03:02:51.769Z,32.03
2022-12-15T03:05:22.231Z,34.20
2022-12-15T03:07:59.005Z,34.22
2022-12-15T03:10:38.360Z,29.63
2022-12-15T03:13:11.663Z,34.08
2022-12-15T03:15:55.180Z,25.20
2022-12-15T03:18:26.689Z,31.38
2022-12-15T03:20:57.353Z,34.80
2022-12-15T03:23:34.669Z,31.70
2022-12-15T03:26:27.803Z,35.00
2022-12-15T03:28:58.238Z,35.75
2022-12-15T03:31:27.045Z,34.40
2022-12-15T03:33:59.367Z,36.35
2022-12-15T03:36:29.629Z,43.10
2022-12-15T03:39:06.337Z,47.45
2022-12-15T03:41:58.973Z,44.97
2022-12-15T03:44:30.603Z,45.35
2022-12-15T03:47:04.924Z,39.97
2022-12-15T03:49:37.441Z,38.97
2022-12-15T03:52:19.842Z,38.25
2022-12-15T03:54:53.661Z,34.78
2022-12-15T03:57:24.860Z,36.58
2022-12-15T03:59:56.543Z,36.90
2022-12-15T04:02:27.190Z,40.95
2022-12-15T04:04:59.047Z,33.78
2022-12-15T04:07:27.860Z,42.70
2022-12-15T04:10:08.837Z,55.08
2022-12-15T04:12:40.075Z,53.42
2022-12-15T04:15:23.348Z,51.20
2022-12-15T04:18:10.311Z,55.47
2022-12-15T04:20:44.076Z,46.80
2022-12-15T04:23:16.627Z,45.55
2022-12-15T04:26:24.343Z,42.28
2022-12-15T04:29:12.664Z,34.08
2022-12-15T04:32:07.337Z,35.95
2022-12-15T04:34:59.062Z,34.83
2022-12-15T04:37:53.267Z,34.38
2022-12-15T04:40:40.829Z,37.08
2022-12-15T04:43:29.953Z,36.35
2022-12-15T04:46:20.355Z,35.80
2022-12-15T04:49:20.545Z,38.47
2022-12-15T04:52:13.313Z,34.28
2022-12-15T04:55:02.269Z,43.08
2022-12-15T04:57:49.968Z,45.13
2022-12-15T05:00:38.577Z,42.95
2022-12-15T05:06:38.154Z,50.03
2022-12-15T05:09:32.687Z,54.58
2022-12-15T05:12:32.133Z,39.20
2022-12-15T05:15:26.718Z,36.60
2022-12-15T05:18:17.967Z,33.03
2022-12-15T05:21:13.344Z,36.78
2022-12-15T05:24:02.705Z,35.58
2022-12-15T05:26:56.187Z,39.50
2022-12-15T05:29:44.371Z,32.25
2022-12-15T05:32:29.534Z,37.58
2022-12-15T05:35:13.373Z,36.35
2022-12-15T05:38:07.150Z,31.00
2022-12-15T05:43:51.187Z,35.20
2022-12-15T05:46:33.321Z,39.08
2022-12-15T05:52:18.874Z,45.03
2022-12-15T05:55:09.740Z,33.88
2022-12-15T05:57:46.111Z,35.22
2022-12-15T06:00:21.324Z,37.50
2022-12-15T06:02:50.313Z,40.65
2022-12-15T06:05:29.268Z,41.67
2022-12-15T06:08:21.721Z,42.65
2022-12-15T06:11:15.139Z,35.92
2022-12-15T06:13:46.325Z,32.58
2022-12-15T06:16:44.207Z,36.92
2022-12-15T06:19:30.871Z,44.17
2022-12-15T06:22:02.946Z,56.88
2022-12-15T06:24:48.172Z,51.50
2022-12-15T06:27:16.832Z,47.72
2022-12-15T06:29:52.312Z,37.95
2022-12-15T06:32:24.004Z,40.20
2022-12-15T06:34:52.797Z,39.25
2022-12-15T06:37:25.249Z,37.58
2022-12-15T06:53:29.528Z,47.15
2022-12-15T06:56:03.603Z,42.40
2022-12-15T06:58:35.721Z,55.72
2022-12-15T07:01:08.263Z,43.85
2022-12-15T07:03:39.656Z,43.40
2022-12-15T07:06:15.813Z,41.13
2022-12-15T07:08:55.336Z,38.42
2022-12-15T07:11:25.630Z,44.22
2022-12-15T07:13:54.959Z,39.67
2022-12-15T07:16:25.122Z,37.92
2022-12-15T07:19:00.838Z,37.63
2022-12-15T07:21:31.048Z,38.17
2022-12-15T07:24:03.148Z,35.80
2022-12-15T07:26:33.925Z,37.40
2022-12-15T07:29:03.333Z,41.90
2022-12-15T07:31:32.438Z,38.35
2022-12-15T07:34:06.453Z,34.58
2022-12-15T07:36:35.212Z,36.40
2022-12-15T07:39:08.477Z,40.70
2022-12-15T07:41:37.348Z,43.50
2022-12-15T07:44:07.124Z,40.25
2022-12-15T07:46:37.910Z,39.78
2022-12-15T07:49:06.706Z,36.15
2022-12-15T07:51:39.595Z,39.70
2022-12-15T07:54:19.885Z,39.92
2022-12-15T07:56:51.285Z,41.35
2022-12-15T07:59:20.193Z,45.42
2022-12-15T08:02:04.414Z,38.63
2022-12-15T08:04:33.332Z,35.85
2022-12-15T08:07:06.114Z,36.10
2022-12-15T08:09:38.294Z,38.47
2022-12-15T08:12:07.202Z,34.53
2022-12-15T08:14:35.973Z,34.25
2022-12-15T08:17:06.724Z,33.72
2022-12-15T08:19:35.491Z,36.95
2022-12-15T08:22:04.207Z,38.95
2022-12-15T08:24:37.899Z,48.95
2022-12-15T08:27:06.603Z,50.45
2022-12-15T08:29:51.800Z,41.75
2022-12-15T08:32:21.983Z,39.97
2022-12-15T08:34:50.888Z,43.85
2022-12-15T08:37:19.698Z,42.88
2022-12-15T08:39:49.961Z,47.55
2022-12-15T08:42:18.687Z,44.70
2022-12-15T08:44:51.831Z,46.47
2022-12-15T08:47:20.578Z,46.03
2022-12-15T08:49:50.340Z,40.58
2022-12-15T08:52:19.468Z,41.85
2022-12-15T08:54:52.465Z,41.95
2022-12-15T08:57:21.023Z,42.75
2022-12-15T08:59:51.567Z,45.78
2022-12-15T09:02:20.424Z,43.03
2022-12-15T09:04:51.098Z,39.70
2022-12-15T09:07:21.685Z,44.30
2022-12-15T09:09:59.318Z,42.95
2022-12-15T09:12:28.439Z,43.67
2022-12-15T09:14:57.176Z,40.45
2022-12-15T09:17:26.023Z,41.70
2022-12-15T09:19:54.882Z,37.42
2022-12-15T09:22:23.543Z,43.38
2022-12-15T09:25:00.910Z,38.45
2022-12-15T09:27:32.434Z,44.80
2022-12-15T09:30:03.392Z,38.95
2022-12-15T09:32:32.347Z,38.90
2022-12-15T09:35:02.168Z,39.65
2022-12-15T09:37:32.693Z,40.75
2022-12-15T09:40:06.922Z,43.88
2022-12-15T09:42:37.223Z,40.15
2022-12-15T09:45:12.761Z,41.50
2022-12-15T09:47:44.725Z,42.70
2022-12-15T09:50:14.454Z,47.60
2022-12-15T09:52:51.424Z,43.88
2022-12-15T09:55:24.028Z,43.42
2022-12-15T09:57:55.407Z,43.30
2022-12-15T10:00:31.626Z,44.22
2022-12-15T10:03:20.431Z,43.67
2022-12-15T10:08:47.068Z,46.33
2022-12-15T10:11:25.599Z,42.78
2022-12-15T10:13:58.557Z,45.88
2022-12-15T10:16:33.645Z,46.00
2022-12-15T10:19:13.693Z,43.60
2022-12-15T10:21:43.912Z,44.17
2022-12-15T10:24:44.505Z,40.45
2022-12-15T10:27:20.453Z,41.55
2022-12-15T10:29:52.051Z,45.40
2022-12-15T10:32:23.357Z,38.35
2022-12-15T10:34:56.465Z,38.83
2022-12-15T10:37:28.709Z,33.35
2022-12-15T10:39:57.590Z,45.60
2022-12-15T10:42:32.776Z,44.67
2022-12-15T10:45:09.824Z,43.22
2022-12-15T10:47:43.596Z,46.33
2022-12-15T10:52:57.832Z,43.17
2022-12-15T10:58:04.908Z,46.03
2022-12-15T11:00:43.838Z,50.42
2022-12-15T11:03:30.768Z,42.55
2022-12-15T11:06:01.728Z,41.92
2022-12-15T11:08:42.993Z,47.33
2022-12-15T11:11:50.389Z,44.60
2022-12-15T11:14:28.066Z,46.05
2022-12-15T11:17:01.324Z,40.22
2022-12-15T11:19:38.000Z,48.13
2022-12-15T11:22:15.262Z,46.33
2022-12-15T11:24:52.229Z,43.88
2022-12-15T11:27:32.796Z,41.22
2022-12-15T11:30:06.888Z,44.70
2022-12-15T11:32:41.450Z,47.42
2022-12-15T11:35:15.797Z,42.40
2022-12-15T11:37:45.895Z,42.95
2022-12-15T11:40:39.545Z,42.63
2022-12-15T11:43:25.627Z,41.80
2022-12-15T11:46:06.893Z,45.28
2022-12-15T11:48:42.260Z,46.63
2022-12-15T11:51:32.856Z,45.20
2022-12-15T11:54:12.403Z,42.25
2022-12-15T11:56:45.425Z,43.22
2022-12-15T11:59:42.348Z,39.58
2022-12-15T12:02:28.370Z,44.22
2022-12-15T12:05:04.393Z,37.35
2022-12-15T12:07:40.251Z,43.95
2022-12-15T12:10:19.760Z,41.30
2022-12-15T12:12:52.601Z,42.05
2022-12-15T12:15:28.013Z,50.53
2022-12-15T12:18:08.096Z,43.50
2022-12-15T12:20:42.161Z,41.65
2022-12-15T12:23:16.048Z,41.50
2022-12-15T12:25:47.772Z,44.92
2022-12-15T12:28:20.149Z,38.40
2022-12-15T12:33:43.513Z,41.22
2022-12-15T12:36:19.966Z,42.90
2022-12-15T12:39:00.302Z,39.40
2022-12-15T12:41:40.096Z,43.72
2022-12-15T12:44:17.299Z,40.42
2022-12-15T12:46:50.536Z,41.50
2022-12-15T12:49:31.307Z,40.78
2022-12-15T12:52:01.985Z,43.13
2022-12-15T12:54:46.272Z,38.75
2022-12-15T12:57:39.093Z,37.50
2022-12-15T13:00:31.499Z,38.42
2022-12-15T13:03:18.652Z,40.55
2022-12-15T13:05:50.609Z,38.35
2022-12-15T13:08:44.401Z,39.30
2022-12-15T13:11:33.352Z,35.10
2022-12-15T13:14:04.353Z,40.67
2022-12-15T13:16:40.235Z,41.72
2022-12-15T13:19:12.146Z,41.83
2022-12-15T13:21:55.195Z,42.05
2022-12-15T13:25:27.573Z,39.70
2022-12-15T13:32:22.839Z,42.72
2022-12-15T13:40:27.663Z,43.50
2022-12-15T13:43:11.581Z,37.17
2022-12-15T13:46:00.507Z,40.13
2022-12-15T13:48:40.708Z,40.13
2022-12-15T13:52:05.001Z,40.05
2022-12-15T13:55:27.871Z,44.90
2022-12-15T14:05:49.067Z,37.03
2022-12-15T14:08:20.677Z,40.97
2022-12-15T14:11:51.434Z,40.75
2022-12-15T14:14:38.563Z,40.28
2022-12-15T14:17:10.025Z,42.47
2022-12-15T14:19:51.063Z,41.08
2022-12-15T14:22:39.940Z,44.60
2022-12-15T14:25:22.104Z,43.85
2022-12-15T14:30:43.691Z,42.35
2022-12-15T14:33:33.801Z,41.97
2022-12-15T14:36:11.613Z,45.90
2022-12-15T14:38:46.634Z,44.67
2022-12-15T14:41:31.219Z,43.65
2022-12-15T14:44:36.590Z,41.25
2022-12-15T14:47:21.020Z,51.15
2022-12-15T14:50:01.078Z,50.67
2022-12-15T14:52:31.854Z,54.17
2022-12-15T14:55:24.192Z,49.10
2022-12-15T14:58:08.705Z,49.00
2022-12-15T15:01:00.870Z,48.08
2022-12-15T15:03:11.153Z,41.90
2022-12-15T15:03:49.085Z,48.25
2022-12-15T15:06:34.881Z,47.33
2022-12-15T15:09:28.175Z,46.15
2022-12-15T15:12:01.642Z,44.45
2022-12-15T15:14:34.799Z,45.75
2022-12-15T15:17:09.736Z,39.25
2022-12-15T15:19:51.221Z,42.17
2022-12-15T15:22:46.350Z,41.28
2022-12-15T15:25:36.201Z,47.25
2022-12-15T15:28:21.281Z,47.58
2022-12-15T15:30:50.386Z,44.60
2022-12-15T15:33:57.635Z,47.15
2022-12-15T15:36:31.571Z,45.42
2022-12-15T15:39:00.683Z,45.95
2022-12-15T15:41:30.417Z,54.90
2022-12-15T15:44:08.687Z,47.00
2022-12-15T15:46:43.591Z,41.22
2022-12-15T15:49:16.692Z,45.90
2022-12-15T15:51:49.067Z,47.85
2022-12-15T15:54:26.243Z,56.17
2022-12-15T15:56:58.596Z,57.28
2022-12-15T15:59:29.091Z,67.47
2022-12-15T16:01:58.362Z,57.63
2022-12-15T16:04:28.709Z,55.17
2022-12-15T16:06:58.827Z,51.47
2022-12-15T16:09:27.493Z,49.25
2022-12-15T16:11:59.840Z,47.47
2022-12-15T16:14:29.984Z,49.75
2022-12-15T16:17:00.226Z,43.10
2022-12-15T16:19:29.135Z,45.17
2022-12-15T16:21:59.970Z,43.63
2022-12-15T16:24:28.792Z,46.13
2022-12-15T16:27:00.120Z,49.10
2022-12-15T16:29:33.105Z,47.40
2022-12-15T16:34:59.371Z,49.50
2022-12-15T16:38:00.480Z,46.83
2022-12-15T16:40:40.031Z,49.65
2022-12-15T16:43:19.855Z,48.97
2022-12-15T16:49:03.770Z,49.95
2022-12-15T16:52:47.717Z,49.05
2022-12-15T16:55:39.945Z,52.92
2022-12-15T16:58:18.203Z,52.05
2022-12-15T17:00:55.780Z,48.05
2022-12-15T17:03:26.264Z,47.92
2022-12-15T17:06:08.316Z,50.55
2022-12-15T17:08:42.392Z,51.35
2022-12-15T17:11:25.229Z,49.63
2022-12-15T17:14:14.919Z,56.25
2022-12-15T17:17:07.268Z,48.03
2022-12-15T17:20:27.899Z,50.95
2022-12-15T17:22:40.477Z,50.63
2022-12-15T17:25:15.105Z,50.08
2022-12-15T17:27:45.931Z,48.13
2022-12-15T17:30:30.653Z,42.03
2022-12-15T17:33:20.753Z,44.80
2022-12-15T17:35:52.087Z,44.65
2022-12-15T17:38:21.705Z,46.10
2022-12-15T17:40:53.179Z,49.58
2022-12-15T17:43:28.168Z,44.47
2022-12-15T17:46:00.717Z,46.58
2022-12-15T17:48:29.502Z,53.58
2022-12-15T17:50:58.437Z,47.53
2022-12-15T17:53:27.481Z,51.28
2022-12-15T17:55:56.702Z,42.30
2022-12-15T17:58:29.718Z,42.47
2022-12-15T18:01:04.701Z,44.97
2022-12-15T18:03:33.947Z,43.63
2022-12-15T18:06:05.562Z,44.30
2022-12-15T18:08:36.467Z,47.67
2022-12-15T18:11:05.208Z,43.90
2022-12-15T18:13:35.923Z,42.55
2022-12-15T18:16:04.603Z,45.13
2022-12-15T18:18:33.584Z,50.10
2022-12-15T18:21:03.811Z,41.65
2022-12-15T18:23:32.831Z,47.38
2022-12-15T18:26:03.264Z,49.30
2022-12-15T18:28:32.794Z,46.33
2022-12-15T18:31:04.627Z,42.10
2022-12-15T18:33:36.407Z,44.30
2022-12-15T18:36:09.562Z,45.28
2022-12-15T18:38:38.737Z,42.60
2022-12-15T18:41:13.358Z,42.97
2022-12-15T18:43:43.637Z,44.53
2022-12-15T18:46:15.347Z,43.47
2022-12-15T18:48:44.817Z,42.92
2022-12-15T18:51:17.931Z,42.30
2022-12-15T18:53:49.793Z,45.88
2022-12-15T18:56:21.752Z,48.33
2022-12-15T18:58:52.822Z,46.55
2022-12-15T19:01:24.581Z,43.35
2022-12-15T19:03:53.390Z,38.40
2022-12-15T19:06:26.225Z,39.75
2022-12-15T19:08:55.769Z,40.40
2022-12-15T19:11:31.262Z,42.55
2022-12-15T19:14:00.721Z,40.38
2022-12-15T19:16:51.091Z,39.30
2022-12-15T19:19:45.975Z,44.50
2022-12-15T19:22:30.684Z,41.67
2022-12-15T19:25:04.697Z,44.58
2022-12-15T19:27:37.945Z,44.00
2022-12-15T19:30:10.080Z,47.15
2022-12-15T19:32:54.612Z,40.88
2022-12-15T19:35:24.956Z,43.50
2022-12-15T19:37:57.723Z,42.65
2022-12-15T19:40:30.666Z,34.07
2022-12-15T19:43:00.426Z,34.78
2022-12-15T19:45:42.578Z,34.22
2022-12-15T19:48:23.730Z,36.67
2022-12-15T19:51:07.619Z,32.42
2022-12-15T19:53:58.540Z,34.17
2022-12-15T19:56:30.757Z,41.90
2022-12-15T19:59:29.596Z,37.38
2022-12-15T20:01:58.357Z,40.88
2022-12-15T20:04:42.053Z,44.22
2022-12-15T20:07:17.699Z,41.70
2022-12-15T20:09:48.732Z,47.53
2022-12-15T20:12:22.569Z,47.83
2022-12-15T20:14:55.325Z,45.75
2022-12-15T20:17:25.107Z,42.90
2022-12-15T20:19:58.289Z,36.75
2022-12-15T20:22:26.908Z,37.30
2022-12-15T20:25:04.405Z,41.65
2022-12-15T20:27:34.935Z,43.05
2022-12-15T20:30:19.039Z,38.85
2022-12-15T20:35:21.319Z,35.00
2022-12-15T20:37:50.345Z,29.88
2022-12-15T20:40:26.205Z,33.45
2022-12-15T20:42:56.600Z,27.98
2022-12-15T20:45:35.049Z,31.25
2022-12-15T20:48:07.206Z,32.03
2022-12-15T20:50:44.286Z,27.10
2022-12-15T20:53:18.069Z,29.63
2022-12-15T20:58:20.060Z,28.63
2022-12-15T21:00:52.698Z,32.88
2022-12-15T21:03:33.293Z,36.95
2022-12-15T21:06:03.840Z,35.13
2022-12-15T21:08:38.141Z,29.90
2022-12-15T21:11:14.986Z,33.00
2022-12-15T21:13:44.744Z,32.55
2022-12-15T21:16:43.270Z,28.40
2022-12-15T21:19:20.960Z,34.97
2022-12-15T21:21:56.521Z,28.42
2022-12-15T21:24:29.395Z,33.72
2022-12-15T21:27:16.753Z,27.35
2022-12-15T21:29:52.891Z,27.30
2022-12-15T21:32:28.699Z,25.77
2022-12-15T21:35:03.340Z,27.48
2022-12-15T21:37:35.076Z,28.63
2022-12-15T21:40:08.135Z,29.13
2022-12-15T21:42:45.980Z,27.55
2022-12-15T21:45:20.277Z,25.92
2022-12-15T21:48:15.156Z,31.58
2022-12-15T21:50:51.875Z,29.13
2022-12-15T21:53:27.560Z,26.80
2022-12-15T21:56:07.688Z,24.25
2022-12-15T21:58:41.383Z,24.25
2022-12-15T22:01:15.580Z,26.17
2022-12-15T22:03:47.271Z,22.92
2022-12-15T22:06:25.586Z,27.40
2022-12-15T22:09:01.489Z,20.77
2022-12-15T22:11:36.063Z,23.67
2022-12-15T22:14:07.865Z,22.55
2022-12-15T22:16:37.413Z,21.98
2022-12-15T22:19:08.787Z,22.90
2022-12-15T22:21:40.879Z,25.45
2022-12-15T22:24:14.268Z,27.67
2022-12-15T22:26:46.337Z,25.55
2022-12-15T22:29:16.106Z,22.38
2022-12-15T22:31:52.300Z,27.63
2022-12-15T22:34:24.165Z,25.33
2022-12-15T22:36:52.850Z,22.75
2022-12-15T22:39:27.579Z,25.02
2022-12-15T22:42:06.615Z,24.42
2022-12-15T22:44:41.506Z,22.67
2022-12-15T22:47:12.210Z,22.65
2022-12-15T22:49:41.991Z,33.30
2022-12-15T22:52:17.046Z,29.70
2022-12-15T22:54:49.340Z,32.63
2022-12-15T22:57:22.401Z,29.88
2022-12-15T22:59:52.329Z,27.35
2022-12-15T23:02:25.100Z,30.15
2022-12-15T23:04:53.658Z,23.60
2022-12-15T23:07:24.875Z,21.30
2022-12-15T23:10:24.830Z,18.20
2022-12-15T23:12:56.910Z,19.25
2022-12-15T23:15:52.882Z,22.90
2022-12-15T23:18:23.285Z,28.42
2022-12-15T23:20:52.897Z,37.97
2022-12-15T23:23:35.658Z,53.90
2022-12-15T23:26:06.276Z,33.58
2022-12-15T23:28:36.813Z,27.40
2022-12-15T23:31:05.936Z,23.38
2022-12-15T23:33:35.548Z,20.20
2022-12-15T23:36:06.482Z,19.13
2022-12-15T23:38:35.106Z,18.92
2022-12-15T23:41:05.661Z,23.25
2022-12-15T23:43:37.374Z,20.88
2022-12-15T23:46:06.974Z,19.25
2022-12-15T23:48:38.604Z,18.67
2022-12-15T23:51:08.702Z,18.55
2022-12-15T23:53:38.934Z,15.60
2022-12-15T23:56:08.978Z,15.85
2022-12-15T23:58:39.509Z,17.35
